Time;durP1;ratioP1;P1;durP2;ratioP2;P2;SDS_P1;SDS_P2;PMS_P1;PMS_P2;Temp;Humidity;BMP_temperature;BMP_pressure;BME280_temperature;BME280_humidity;BME280_pressure;Samples;Min_cycle;Max_cycle;Signal;HPM_P1;HPM_P2
2019/07/26 00:02:11;;;;;;;3.98;2.65;;;;;;;23.85;57.89;100082.52;;;;-57
2019/07/26 00:05:06;;;;;;;4.25;2.69;;;;;;;23.85;57.94;100085.48;;;;-57
2019/07/26 00:08:06;;;;;;;3.02;2.69;;;;;;;23.85;57.94;100084.03;;;;-58
2019/07/26 00:11:06;;;;;;;3.46;2.68;;;;;;;23.85;57.92;100081.67;;;;-57
2019/07/26 00:14:06;;;;;;;3.20;2.85;;;;;;;23.84;57.93;100075.60;;;;-57
2019/07/26 00:17:07;;;;;;;2.79;2.54;;;;;;;23.84;57.94;100072.48;;;;-57
2019/07/26 00:20:07;;;;;;;4.12;2.77;;;;;;;23.84;57.94;100068.94;;;;-58
2019/07/26 00:23:07;;;;;;;2.78;2.55;;;;;;;23.83;57.92;100068.41;;;;-57
2019/07/26 00:26:06;;;;;;;2.89;2.49;;;;;;;23.83;57.93;100067.39;;;;-58
2019/07/26 00:29:06;;;;;;;2.79;2.44;;;;;;;23.83;57.94;100068.41;;;;-58
2019/07/26 00:32:06;;;;;;;4.63;2.67;;;;;;;23.83;57.92;100068.00;;;;-57
2019/07/26 00:35:06;;;;;;;2.77;2.52;;;;;;;23.83;57.94;100067.22;;;;-57
2019/07/26 00:38:07;;;;;;;2.66;2.39;;;;;;;23.83;57.92;100068.74;;;;-58
2019/07/26 00:41:06;;;;;;;3.69;2.70;;;;;;;23.83;57.95;100063.52;;;;-57
2019/07/26 00:44:07;;;;;;;3.21;2.65;;;;;;;23.83;57.94;100063.52;;;;-58
2019/07/26 00:47:06;;;;;;;2.95;2.65;;;;;;;23.83;57.98;100061.16;;;;-58
2019/07/26 00:50:06;;;;;;;3.27;2.60;;;;;;;23.82;57.94;100053.47;;;;-58
2019/07/26 00:53:06;;;;;;;2.91;2.59;;;;;;;23.82;57.94;100053.47;;;;-58
2019/07/26 00:56:06;;;;;;;3.44;2.45;;;;;;;23.82;57.94;100051.92;;;;-58
2019/07/26 00:59:07;;;;;;;2.71;2.36;;;;;;;23.82;57.93;100055.50;;;;-58
2019/07/26 01:02:07;;;;;;;3.85;2.71;;;;;;;23.82;57.92;100055.23;;;;-58
2019/07/26 01:05:07;;;;;;;3.33;2.60;;;;;;;23.82;57.88;100050.17;;;;-58
2019/07/26 01:08:06;;;;;;;2.63;2.43;;;;;;;23.82;57.92;100046.97;;;;-57
2019/07/26 01:11:06;;;;;;;3.99;2.34;;;;;;;23.82;57.94;100047.81;;;;-57
2019/07/26 01:14:06;;;;;;;4.05;2.51;;;;;;;23.81;57.93;100045.09;;;;-58
2019/07/26 01:17:06;;;;;;;3.04;2.53;;;;;;;23.81;57.91;100048.47;;;;-58
2019/07/26 01:20:06;;;;;;;2.69;2.49;;;;;;;23.80;57.94;100046.76;;;;-58
2019/07/26 01:23:06;;;;;;;2.77;2.49;;;;;;;23.80;57.91;100047.20;;;;-58
2019/07/26 01:26:07;;;;;;;3.02;2.69;;;;;;;23.81;57.90;100050.25;;;;-58
2019/07/26 01:29:06;;;;;;;2.65;2.45;;;;;;;23.81;57.93;100048.98;;;;-58
2019/07/26 01:32:06;;;;;;;3.17;2.60;;;;;;;23.80;57.88;100049.55;;;;-57
2019/07/26 01:35:06;;;;;;;3.25;2.42;;;;;;;23.80;57.93;100047.77;;;;-58
2019/07/26 01:38:06;;;;;;;2.97;2.47;;;;;;;23.80;57.88;100047.37;;;;-58
2019/07/26 01:41:06;;;;;;;2.77;2.57;;;;;;;23.80;57.87;100047.20;;;;-58
2019/07/26 01:44:07;;;;;;;3.02;2.47;;;;;;;23.80;57.90;100043.72;;;;-58
2019/07/26 01:47:07;;;;;;;2.44;2.24;;;;;;;23.80;57.92;100039.00;;;;-57
2019/07/26 01:50:06;;;;;;;2.66;2.46;;;;;;;23.80;57.88;100040.28;;;;-58
2019/07/26 01:53:06;;;;;;;2.63;2.43;;;;;;;23.80;57.90;100039.34;;;;-58
2019/07/26 01:56:06;;;;;;;2.70;2.50;;;;;;;23.80;57.95;100048.61;;;;-58
2019/07/26 01:59:06;;;;;;;2.66;2.45;;;;;;;23.79;57.84;100046.50;;;;-57
2019/07/26 02:02:06;;;;;;;2.62;2.42;;;;;;;23.80;57.92;100048.28;;;;-57
2019/07/26 02:05:07;;;;;;;2.66;2.35;;;;;;;23.80;57.90;100048.72;;;;-58
2019/07/26 02:08:06;;;;;;;2.58;2.38;;;;;;;23.79;57.86;100049.27;;;;-58
2019/07/26 02:11:06;;;;;;;2.60;2.40;;;;;;;23.79;57.90;100048.77;;;;-58
2019/07/26 02:14:06;;;;;;;2.72;2.39;;;;;;;23.79;57.88;100048.77;;;;-57
2019/07/26 02:17:06;;;;;;;2.73;2.43;;;;;;;23.79;57.88;100043.47;;;;-58
2019/07/26 02:20:06;;;;;;;2.60;2.40;;;;;;;23.79;57.87;100038.58;;;;-58
2019/07/26 02:23:06;;;;;;;2.60;2.40;;;;;;;23.78;57.92;100035.52;;;;-58
2019/07/26 02:26:07;;;;;;;2.61;2.33;;;;;;;23.78;57.93;100031.64;;;;-57
2019/07/26 02:29:06;;;;;;;3.49;2.56;;;;;;;23.78;57.89;100028.44;;;;-58
2019/07/26 02:32:06;;;;;;;2.61;2.41;;;;;;;23.78;57.89;100025.98;;;;-58
2019/07/26 02:35:06;;;;;;;2.93;2.59;;;;;;;23.78;57.88;100020.82;;;;-58
2019/07/26 02:38:06;;;;;;;2.60;2.38;;;;;;;23.78;57.87;100021.35;;;;-58
2019/07/26 02:41:06;;;;;;;2.59;2.39;;;;;;;23.78;57.87;100022.34;;;;-58
2019/07/26 02:44:06;;;;;;;2.45;2.23;;;;;;;23.78;57.90;100019.30;;;;-58
2019/07/26 02:47:06;;;;;;;3.54;2.37;;;;;;;23.78;57.89;100014.27;;;;-58
2019/07/26 02:50:07;;;;;;;2.75;2.31;;;;;;;23.78;57.96;100011.38;;;;-58
2019/07/26 02:53:06;;;;;;;2.61;2.40;;;;;;;23.78;57.91;100009.62;;;;-58
2019/07/26 02:56:06;;;;;;;2.52;2.32;;;;;;;23.78;57.90;100013.97;;;;-58
2019/07/26 02:59:06;;;;;;;2.65;2.43;;;;;;;23.78;57.90;100016.34;;;;-58
2019/07/26 03:02:06;;;;;;;2.43;2.23;;;;;;;23.77;57.88;100017.42;;;;-57
2019/07/26 03:05:06;;;;;;;2.63;2.43;;;;;;;23.77;57.84;100014.28;;;;-58
2019/07/26 03:08:06;;;;;;;2.50;2.30;;;;;;;23.77;57.88;100016.74;;;;-58
2019/07/26 03:11:06;;;;;;;2.48;2.28;;;;;;;23.76;57.92;100015.38;;;;-57
2019/07/26 03:14:06;;;;;;;2.61;2.41;;;;;;;23.77;57.96;100023.83;;;;-58
2019/07/26 03:17:06;;;;;;;2.70;2.39;;;;;;;23.77;57.92;100025.59;;;;-58
2019/07/26 03:20:06;;;;;;;2.59;2.38;;;;;;;23.76;57.97;100026.07;;;;-58
2019/07/26 03:23:06;;;;;;;2.49;2.29;;;;;;;23.76;58.04;100028.88;;;;-58
2019/07/26 03:26:06;;;;;;;4.59;2.29;;;;;;;23.76;58.07;100029.38;;;;-59
2019/07/26 03:29:07;;;;;;;7.83;3.22;;;;;;;23.74;57.94;100023.94;;;;-58
2019/07/26 03:32:06;;;;;;;6.82;2.87;;;;;;;23.74;57.78;100028.56;;;;-58
2019/07/26 03:35:06;;;;;;;7.20;3.37;;;;;;;23.73;57.65;100024.77;;;;-59
2019/07/26 03:38:06;;;;;;;8.48;3.17;;;;;;;23.73;57.68;100026.21;;;;-58
2019/07/26 03:41:06;;;;;;;3.59;3.23;;;;;;;23.73;57.17;100021.62;;;;-58
2019/07/26 03:44:06;;;;;;;4.64;3.51;;;;;;;23.74;55.56;100022.50;;;;-58
2019/07/26 03:47:06;;;;;;;7.82;3.65;;;;;;;23.74;56.34;100025.87;;;;-58
2019/07/26 03:50:06;;;;;;;7.14;3.74;;;;;;;23.73;56.62;100019.03;;;;-57
2019/07/26 03:53:07;;;;;;;4.97;3.66;;;;;;;23.73;56.77;100022.33;;;;-58
2019/07/26 03:56:06;;;;;;;5.70;3.52;;;;;;;23.74;56.94;100029.67;;;;-58
2019/07/26 03:59:06;;;;;;;3.93;3.40;;;;;;;23.74;56.98;100032.38;;;;-58
2019/07/26 04:02:06;;;;;;;4.91;3.40;;;;;;;23.74;56.98;100031.94;;;;-58
2019/07/26 04:05:06;;;;;;;4.48;3.47;;;;;;;23.74;56.99;100035.65;;;;-58
2019/07/26 04:08:06;;;;;;;3.71;3.39;;;;;;;23.73;56.97;100034.88;;;;-58
2019/07/26 04:11:06;;;;;;;6.47;3.35;;;;;;;23.73;57.01;100036.83;;;;-58
2019/07/26 04:14:07;;;;;;;4.93;3.41;;;;;;;23.73;57.02;100040.45;;;;-58
2019/07/26 04:17:06;;;;;;;4.43;3.43;;;;;;;23.73;57.06;100040.34;;;;-57
2019/07/26 04:20:06;;;;;;;5.07;3.47;;;;;;;23.73;57.07;100041.05;;;;-58
2019/07/26 04:23:06;;;;;;;3.54;3.24;;;;;;;23.74;57.12;100040.70;;;;-58
2019/07/26 04:26:06;;;;;;;4.98;3.17;;;;;;;23.72;57.10;100038.40;;;;-58
2019/07/26 04:29:06;;;;;;;4.65;3.39;;;;;;;23.73;57.15;100037.98;;;;-60
2019/07/26 04:32:06;;;;;;;4.07;3.20;;;;;;;23.73;57.20;100041.19;;;;-60
2019/07/26 04:35:06;;;;;;;3.41;3.13;;;;;;;23.73;57.21;100038.42;;;;-58
2019/07/26 04:38:06;;;;;;;3.57;3.27;;;;;;;23.73;57.22;100037.08;;;;-58
2019/07/26 04:41:06;;;;;;;3.57;3.27;;;;;;;23.73;57.23;100037.48;;;;-61
2019/07/26 04:44:06;;;;;;;3.38;3.03;;;;;;;23.72;57.24;100034.45;;;;-61
2019/07/26 04:47:06;;;;;;;4.94;3.29;;;;;;;23.72;57.25;100033.84;;;;-58
2019/07/26 04:50:06;;;;;;;5.15;3.48;;;;;;;23.72;57.26;100030.64;;;;-57
2019/07/26 04:53:06;;;;;;;3.58;3.28;;;;;;;23.72;57.24;100031.82;;;;-57
2019/07/26 04:56:07;;;;;;;4.61;3.19;;;;;;;23.72;57.29;100029.05;;;;-57
2019/07/26 04:59:06;;;;;;;3.39;3.09;;;;;;;23.72;57.32;100031.92;;;;-58
2019/07/26 05:02:06;;;;;;;3.93;3.25;;;;;;;23.73;57.32;100033.27;;;;-58
2019/07/26 05:05:06;;;;;;;3.47;3.17;;;;;;;23.72;57.33;100036.48;;;;-57
2019/07/26 05:08:06;;;;;;;4.75;3.47;;;;;;;23.72;57.32;100039.41;;;;-57
2019/07/26 05:11:06;;;;;;;3.53;3.10;;;;;;;23.73;57.36;100041.45;;;;-57
2019/07/26 05:14:06;;;;;;;3.50;3.17;;;;;;;23.73;57.32;100043.82;;;;-52
2019/07/26 05:17:07;;;;;;;4.96;3.11;;;;;;;23.74;57.43;100044.59;;;;-53
2019/07/26 05:20:06;;;;;;;3.47;3.17;;;;;;;23.75;57.55;100041.50;;;;-53
2019/07/26 05:23:12;;;;;;;4.55;3.40;;;;;;;23.76;57.46;100044.55;;;;-53
2019/07/26 05:26:06;;;;;;;4.75;3.16;;;;;;;23.76;57.54;100046.23;;;;-52
2019/07/26 05:29:06;;;;;;;6.64;3.28;;;;;;;23.78;57.65;100050.23;;;;-51
2019/07/26 05:32:06;;;;;;;3.67;3.11;;;;;;;23.79;57.68;100051.39;;;;-52
2019/07/26 05:35:06;;;;;;;4.94;2.95;;;;;;;23.81;57.72;100050.31;;;;-52
2019/07/26 05:38:06;;;;;;;4.17;3.20;;;;;;;23.83;57.77;100050.70;;;;-52
2019/07/26 05:41:07;;;;;;;3.99;3.05;;;;;;;23.83;57.77;100047.59;;;;-55
2019/07/26 05:44:06;;;;;;;3.65;3.35;;;;;;;23.85;57.84;100060.02;;;;-54
2019/07/26 05:47:06;;;;;;;6.19;3.19;;;;;;;23.86;57.90;100091.98;;;;-55
2019/07/26 05:50:06;;;;;;;5.75;3.09;;;;;;;23.87;57.97;100099.02;;;;-56
2019/07/26 05:53:06;;;;;;;4.87;3.27;;;;;;;23.89;57.92;100071.23;;;;-52
2019/07/26 05:56:06;;;;;;;3.41;3.11;;;;;;;23.88;57.90;100043.41;;;;-57
2019/07/26 05:59:06;;;;;;;3.85;3.18;;;;;;;23.90;57.91;100081.13;;;;-51
2019/07/26 06:02:06;;;;;;;4.89;3.21;;;;;;;23.91;57.99;100092.84;;;;-53
2019/07/26 06:05:06;;;;;;;3.23;2.93;;;;;;;23.92;58.03;100059.14;;;;-53
2019/07/26 06:08:06;;;;;;;5.25;3.00;;;;;;;23.92;57.97;100060.25;;;;-53
2019/07/26 06:11:06;;;;;;;4.07;3.16;;;;;;;23.93;58.07;100060.68;;;;-51
2019/07/26 06:14:06;;;;;;;3.46;3.02;;;;;;;23.93;58.10;100064.32;;;;-52
2019/07/26 06:17:06;;;;;;;4.59;3.21;;;;;;;23.96;58.13;100073.56;;;;-52
2019/07/26 06:20:06;;;;;;;4.57;3.00;;;;;;;23.96;58.09;100049.67;;;;-51
2019/07/26 06:23:06;;;;;;;6.26;2.94;;;;;;;23.96;58.03;100060.06;;;;-53
2019/07/26 06:26:06;;;;;;;4.87;3.11;;;;;;;23.98;58.06;100065.41;;;;-51
2019/07/26 06:29:06;;;;;;;4.87;3.11;;;;;;;23.98;58.09;100062.54;;;;-52
2019/07/26 06:32:06;;;;;;;3.63;2.82;;;;;;;23.99;57.97;100052.27;;;;-52
2019/07/26 06:35:06;;;;;;;4.03;3.01;;;;;;;24.00;58.05;100050.25;;;;-52
2019/07/26 06:38:06;;;;;;;4.21;3.17;;;;;;;24.00;58.04;100037.09;;;;-54
2019/07/26 06:41:06;;;;;;;6.61;3.14;;;;;;;24.00;58.02;100032.30;;;;-51
2019/07/26 06:44:06;;;;;;;10.16;2.89;;;;;;;24.01;58.02;100027.34;;;;-52
2019/07/26 06:47:06;;;;;;;4.75;2.99;;;;;;;24.02;57.97;100029.38;;;;-53
2019/07/26 06:50:06;;;;;;;3.77;3.13;;;;;;;24.03;57.92;100031.02;;;;-52
2019/07/26 06:53:06;;;;;;;3.28;2.97;;;;;;;24.03;57.92;100026.86;;;;-52
2019/07/26 06:56:06;;;;;;;5.11;3.13;;;;;;;24.03;58.02;100029.67;;;;-52
2019/07/26 06:59:06;;;;;;;4.09;2.91;;;;;;;24.04;58.07;100024.13;;;;-51
2019/07/26 07:02:06;;;;;;;3.21;2.88;;;;;;;24.04;58.03;100019.40;;;;-52
2019/07/26 07:05:06;;;;;;;3.87;3.12;;;;;;;24.05;57.98;100018.80;;;;-53
2019/07/26 07:08:06;;;;;;;3.41;3.05;;;;;;;24.05;57.99;100024.47;;;;-53
2019/07/26 07:11:06;;;;;;;4.55;3.03;;;;;;;24.07;58.04;100031.50;;;;-53
2019/07/26 07:14:06;;;;;;;3.91;3.11;;;;;;;24.08;57.91;100030.67;;;;-53
2019/07/26 07:17:06;;;;;;;6.12;2.98;;;;;;;24.08;57.84;100028.55;;;;-53
2019/07/26 07:20:06;;;;;;;5.98;2.95;;;;;;;24.08;58.07;100022.48;;;;-52
2019/07/26 07:23:06;;;;;;;3.77;2.87;;;;;;;24.08;57.92;100020.89;;;;-57
2019/07/26 07:26:06;;;;;;;5.53;2.79;;;;;;;24.09;57.95;100019.38;;;;-52
2019/07/26 07:29:06;;;;;;;4.25;3.00;;;;;;;24.09;57.98;100018.81;;;;-53
2019/07/26 07:32:06;;;;;;;4.17;3.21;;;;;;;24.09;57.94;100013.92;;;;-51
2019/07/26 07:35:06;;;;;;;4.73;3.01;;;;;;;24.11;57.94;100011.16;;;;-54
2019/07/26 07:38:06;;;;;;;7.95;2.94;;;;;;;24.10;57.67;100019.48;;;;-54
2019/07/26 07:41:06;;;;;;;6.16;3.01;;;;;;;24.10;57.67;100031.22;;;;-54
2019/07/26 07:44:06;;;;;;;3.71;2.81;;;;;;;24.10;57.69;100027.74;;;;-54
2019/07/26 07:47:06;;;;;;;4.05;3.05;;;;;;;24.08;57.68;100018.28;;;;-54
2019/07/26 07:50:06;;;;;;;4.89;3.14;;;;;;;24.08;57.62;100019.47;;;;-54
2019/07/26 07:53:06;;;;;;;3.92;2.92;;;;;;;24.08;57.60;100012.96;;;;-54
2019/07/26 07:56:06;;;;;;;3.33;3.03;;;;;;;24.07;57.59;100014.70;;;;-54
2019/07/26 07:59:06;;;;;;;3.83;3.11;;;;;;;24.07;57.57;100017.33;;;;-54
2019/07/26 08:02:06;;;;;;;4.75;2.82;;;;;;;24.06;57.59;100010.56;;;;-54
2019/07/26 08:05:06;;;;;;;4.64;2.96;;;;;;;24.05;57.50;100012.66;;;;-54
2019/07/26 08:08:06;;;;;;;4.17;2.99;;;;;;;24.05;57.51;100017.05;;;;-54
2019/07/26 08:11:06;;;;;;;4.21;3.08;;;;;;;24.04;57.45;100012.31;;;;-54
2019/07/26 08:14:06;;;;;;;3.45;3.04;;;;;;;24.03;57.46;100004.70;;;;-54
2019/07/26 08:17:06;;;;;;;6.07;2.89;;;;;;;24.03;57.46;99998.20;;;;-61
2019/07/26 08:20:06;;;;;;;3.73;2.90;;;;;;;24.03;57.44;99992.55;;;;-61
2019/07/26 08:23:06;;;;;;;3.15;2.70;;;;;;;24.02;57.44;99991.35;;;;-62
2019/07/26 08:26:06;;;;;;;4.69;2.83;;;;;;;24.01;57.46;99985.42;;;;-54
2019/07/26 08:29:06;;;;;;;4.19;2.81;;;;;;;24.00;57.46;99992.91;;;;-60
2019/07/26 08:32:06;;;;;;;3.43;2.98;;;;;;;24.00;57.45;99998.30;;;;-54
2019/07/26 08:35:06;;;;;;;5.68;2.93;;;;;;;24.00;57.45;99992.41;;;;-60
2019/07/26 08:38:06;;;;;;;2.96;2.55;;;;;;;23.99;57.45;99988.94;;;;-52
2019/07/26 08:41:06;;;;;;;3.62;2.75;;;;;;;23.99;57.46;99987.33;;;;-52
2019/07/26 08:44:06;;;;;;;5.24;2.80;;;;;;;23.98;57.42;99986.45;;;;-61
2019/07/26 08:47:06;;;;;;;3.16;2.64;;;;;;;23.98;57.44;99986.80;;;;-61
2019/07/26 08:50:06;;;;;;;3.60;2.84;;;;;;;23.97;57.41;99982.66;;;;-52
2019/07/26 08:53:06;;;;;;;6.89;2.95;;;;;;;23.97;57.41;99980.13;;;;-61
2019/07/26 08:56:06;;;;;;;5.11;2.82;;;;;;;23.96;57.42;99978.59;;;;-60
2019/07/26 08:59:06;;;;;;;3.21;2.80;;;;;;;23.96;57.44;99974.11;;;;-60
2019/07/26 09:02:06;;;;;;;3.89;2.97;;;;;;;23.95;57.41;99975.54;;;;-60
2019/07/26 09:05:06;;;;;;;3.09;2.77;;;;;;;23.96;57.41;99974.38;;;;-60
2019/07/26 09:08:06;;;;;;;4.09;2.65;;;;;;;23.95;57.42;99970.81;;;;-60
2019/07/26 09:11:06;;;;;;;2.88;2.58;;;;;;;23.96;57.41;99970.56;;;;-60
2019/07/26 09:14:06;;;;;;;3.01;2.57;;;;;;;23.95;57.41;99963.30;;;;-60
2019/07/26 09:17:07;;;;;;;2.94;2.72;;;;;;;23.94;57.43;99960.00;;;;-54
2019/07/26 09:20:06;;;;;;;3.39;2.66;;;;;;;23.94;57.40;99956.11;;;;-54
2019/07/26 09:23:06;;;;;;;3.54;2.62;;;;;;;23.94;57.42;99949.38;;;;-53
2019/07/26 09:26:06;;;;;;;3.37;2.63;;;;;;;23.94;57.45;99946.75;;;;-54
2019/07/26 09:29:06;;;;;;;3.74;2.86;;;;;;;23.94;57.41;99944.89;;;;-54
2019/07/26 09:32:06;;;;;;;5.65;2.83;;;;;;;23.93;57.58;99943.28;;;;-53
2019/07/26 09:35:06;;;;;;;5.18;3.16;;;;;;;23.94;57.64;99943.30;;;;-53
2019/07/26 09:38:06;;;;;;;5.67;3.05;;;;;;;23.95;57.63;99935.30;;;;-53
2019/07/26 09:41:06;;;;;;;4.87;3.19;;;;;;;23.95;57.60;99930.34;;;;-52
2019/07/26 09:44:06;;;;;;;5.03;3.12;;;;;;;23.95;57.61;99932.63;;;;-52
2019/07/26 09:47:06;;;;;;;4.57;3.21;;;;;;;23.95;57.76;99927.91;;;;-53
2019/07/26 09:50:06;;;;;;;4.37;3.02;;;;;;;23.96;57.72;99931.80;;;;-54
2019/07/26 09:53:06;;;;;;;4.74;2.99;;;;;;;23.97;57.78;99929.02;;;;-53
2019/07/26 09:56:06;;;;;;;7.64;3.28;;;;;;;24.01;57.93;99922.24;;;;-52
2019/07/26 09:59:06;;;;;;;5.40;3.05;;;;;;;24.03;58.01;99919.50;;;;-60
2019/07/26 10:02:06;;;;;;;5.87;2.90;;;;;;;24.06;58.26;99914.40;;;;-57
2019/07/26 10:05:06;;;;;;;9.73;3.37;;;;;;;24.08;58.08;99913.92;;;;-57
2019/07/26 10:08:06;;;;;;;8.36;3.26;;;;;;;24.09;58.12;99908.21;;;;-54
2019/07/26 10:11:06;;;;;;;9.57;3.00;;;;;;;24.13;58.16;99905.07;;;;-60
2019/07/26 10:14:06;;;;;;;10.52;3.47;;;;;;;24.13;57.89;99905.58;;;;-54
2019/07/26 10:17:06;;;;;;;8.93;3.43;;;;;;;24.14;58.17;99906.03;;;;-50
2019/07/26 10:20:06;;;;;;;8.09;3.39;;;;;;;24.14;58.11;99896.63;;;;-61
2019/07/26 10:23:06;;;;;;;6.13;3.22;;;;;;;24.14;57.86;99894.77;;;;-60
2019/07/26 10:26:06;;;;;;;9.67;3.51;;;;;;;24.13;57.94;99887.11;;;;-61
2019/07/26 10:29:06;;;;;;;7.75;3.23;;;;;;;24.14;57.75;99889.38;;;;-61
2019/07/26 10:32:06;;;;;;;5.45;2.92;;;;;;;24.12;57.66;99881.11;;;;-60
2019/07/26 10:35:06;;;;;;;5.32;3.05;;;;;;;24.12;57.68;99878.06;;;;-61
2019/07/26 10:38:06;;;;;;;7.92;2.97;;;;;;;24.11;57.59;99879.48;;;;-60
2019/07/26 10:41:06;;;;;;;7.97;3.15;;;;;;;24.11;57.56;99874.00;;;;-61
2019/07/26 10:44:06;;;;;;;6.75;3.26;;;;;;;24.10;57.57;99877.59;;;;-61
2019/07/26 10:47:06;;;;;;;5.85;3.07;;;;;;;24.10;57.53;99877.86;;;;-61
2019/07/26 10:50:06;;;;;;;5.51;3.05;;;;;;;24.09;57.53;99874.73;;;;-61
2019/07/26 10:53:06;;;;;;;5.33;3.17;;;;;;;24.08;57.51;99873.95;;;;-60
2019/07/26 10:56:06;;;;;;;4.17;2.83;;;;;;;24.07;57.48;99867.11;;;;-61
2019/07/26 10:59:06;;;;;;;3.69;2.89;;;;;;;24.07;57.50;99864.55;;;;-55
2019/07/26 11:02:06;;;;;;;4.84;3.10;;;;;;;24.07;57.43;99861.28;;;;-61
2019/07/26 11:05:06;;;;;;;6.02;3.11;;;;;;;24.06;57.49;99854.41;;;;-61
2019/07/26 11:08:06;;;;;;;4.48;2.96;;;;;;;24.05;57.44;99850.20;;;;-61
2019/07/26 11:11:06;;;;;;;4.95;2.82;;;;;;;24.05;57.44;99847.59;;;;-60
2019/07/26 11:14:06;;;;;;;5.71;2.88;;;;;;;24.04;57.42;99845.64;;;;-61
2019/07/26 11:17:06;;;;;;;3.56;2.97;;;;;;;24.04;57.44;99838.73;;;;-61
2019/07/26 11:20:06;;;;;;;3.55;3.12;;;;;;;24.03;57.42;99836.84;;;;-61
2019/07/26 11:23:06;;;;;;;4.21;2.79;;;;;;;24.03;57.42;99835.00;;;;-61
2019/07/26 11:26:06;;;;;;;5.01;3.00;;;;;;;24.02;57.40;99830.59;;;;-54
2019/07/26 11:29:06;;;;;;;4.51;3.10;;;;;;;24.02;57.38;99822.34;;;;-54
2019/07/26 11:32:06;;;;;;;9.53;3.01;;;;;;;24.01;57.77;99821.48;;;;-62
2019/07/26 11:35:06;;;;;;;6.97;3.21;;;;;;;24.03;57.83;99814.58;;;;-61
2019/07/26 11:38:06;;;;;;;7.60;3.03;;;;;;;24.04;57.84;99804.99;;;;-61
2019/07/26 11:41:06;;;;;;;4.18;2.85;;;;;;;24.04;57.83;99798.23;;;;-61
2019/07/26 11:44:06;;;;;;;4.53;3.03;;;;;;;24.05;58.00;99791.67;;;;-50
2019/07/26 11:47:06;;;;;;;4.83;3.06;;;;;;;24.06;57.92;99791.16;;;;-60
2019/07/26 11:50:06;;;;;;;5.41;3.21;;;;;;;24.07;57.93;99789.99;;;;-59
2019/07/26 11:53:06;;;;;;;4.81;2.86;;;;;;;24.07;58.07;99786.81;;;;-60
2019/07/26 11:56:06;;;;;;;4.99;2.98;;;;;;;24.09;58.12;99784.55;;;;-61
2019/07/26 11:59:06;;;;;;;7.09;3.35;;;;;;;24.10;58.10;99774.45;;;;-60
2019/07/26 12:02:06;;;;;;;4.03;3.09;;;;;;;24.11;58.16;99767.89;;;;-51
2019/07/26 12:05:06;;;;;;;3.86;2.92;;;;;;;24.12;58.26;99765.03;;;;-53
2019/07/26 12:08:06;;;;;;;4.63;2.89;;;;;;;24.12;58.26;99760.39;;;;-51
2019/07/26 12:11:06;;;;;;;7.19;3.05;;;;;;;24.14;58.36;99750.86;;;;-51
2019/07/26 12:14:06;;;;;;;7.50;3.15;;;;;;;24.15;58.41;99745.06;;;;-51
2019/07/26 12:17:06;;;;;;;4.62;3.16;;;;;;;24.16;58.39;99744.57;;;;-54
2019/07/26 12:20:06;;;;;;;4.21;3.08;;;;;;;24.18;58.53;99736.69;;;;-54
2019/07/26 12:23:06;;;;;;;6.93;3.56;;;;;;;24.20;58.39;99734.59;;;;-53
2019/07/26 12:26:06;;;;;;;4.24;3.06;;;;;;;24.22;58.60;99737.56;;;;-52
2019/07/26 12:29:06;;;;;;;6.61;3.10;;;;;;;24.22;58.54;99728.45;;;;-54
2019/07/26 12:32:06;;;;;;;7.27;3.28;;;;;;;24.22;58.39;99725.41;;;;-49
2019/07/26 12:35:06;;;;;;;5.15;3.05;;;;;;;24.24;58.83;99721.23;;;;-57
2019/07/26 12:38:06;;;;;;;10.52;2.91;;;;;;;24.25;58.78;99718.64;;;;-59
2019/07/26 12:41:06;;;;;;;6.92;3.18;;;;;;;24.26;58.59;99707.92;;;;-56
2019/07/26 12:44:06;;;;;;;7.05;3.01;;;;;;;24.28;58.81;99706.94;;;;-57
2019/07/26 12:47:07;;;;;;;6.85;2.99;;;;;;;24.30;58.59;99697.91;;;;-49
2019/07/26 12:50:06;;;;;;;6.61;3.09;;;;;;;24.30;58.67;99689.30;;;;-52
2019/07/26 12:53:06;;;;;;;7.05;3.29;;;;;;;24.31;58.71;99690.27;;;;-48
2019/07/26 12:56:06;;;;;;;4.46;2.97;;;;;;;24.32;58.68;99683.44;;;;-48
2019/07/26 12:59:06;;;;;;;5.51;3.03;;;;;;;24.32;58.71;99674.75;;;;-48
2019/07/26 13:02:06;;;;;;;7.45;3.38;;;;;;;24.32;58.75;99673.23;;;;-52
2019/07/26 13:05:06;;;;;;;5.27;3.15;;;;;;;24.31;58.74;99664.10;;;;-59
2019/07/26 13:08:06;;;;;;;4.67;3.09;;;;;;;24.32;58.69;99662.77;;;;-54
2019/07/26 13:11:06;;;;;;;4.71;3.12;;;;;;;24.33;58.62;99660.50;;;;-60
2019/07/26 13:14:06;;;;;;;6.28;3.05;;;;;;;24.33;58.62;99664.88;;;;-58
2019/07/26 13:17:06;;;;;;;4.04;3.27;;;;;;;24.33;58.59;99655.69;;;;-56
2019/07/26 13:20:06;;;;;;;5.38;3.29;;;;;;;24.34;58.58;99652.41;;;;-55
2019/07/26 13:23:06;;;;;;;12.19;3.56;;;;;;;24.35;58.26;99647.87;;;;-52
2019/07/26 13:26:06;;;;;;;5.78;3.16;;;;;;;24.34;58.53;99642.37;;;;-59
2019/07/26 13:29:06;;;;;;;6.79;3.47;;;;;;;24.33;58.30;99637.88;;;;-60
2019/07/26 13:32:06;;;;;;;5.51;3.47;;;;;;;24.32;58.33;99639.31;;;;-59
2019/07/26 13:35:06;;;;;;;5.81;3.64;;;;;;;24.32;58.18;99631.62;;;;-60
2019/07/26 13:38:06;;;;;;;6.08;3.77;;;;;;;24.32;58.18;99626.83;;;;-63
2019/07/26 13:41:06;;;;;;;6.78;3.71;;;;;;;24.31;58.32;99622.42;;;;-58
2019/07/26 13:44:06;;;;;;;9.51;3.83;;;;;;;24.32;58.42;99618.45;;;;-62
2019/07/26 13:47:06;;;;;;;9.29;3.55;;;;;;;24.34;58.43;99615.62;;;;-58
2019/07/26 13:50:06;;;;;;;8.29;3.73;;;;;;;24.34;58.38;99617.58;;;;-58
2019/07/26 13:53:06;;;;;;;5.83;3.64;;;;;;;24.35;58.51;99614.62;;;;-61
2019/07/26 13:56:06;;;;;;;7.05;3.48;;;;;;;24.35;58.41;99606.34;;;;-59
2019/07/26 13:59:06;;;;;;;7.42;3.55;;;;;;;24.35;58.54;99606.60;;;;-60
2019/07/26 14:02:06;;;;;;;6.25;3.58;;;;;;;24.36;58.44;99601.64;;;;-61
2019/07/26 14:05:06;;;;;;;6.36;3.54;;;;;;;24.36;58.43;99601.22;;;;-58
2019/07/26 14:08:06;;;;;;;5.41;3.50;;;;;;;24.37;58.34;99592.70;;;;-58
2019/07/26 14:11:06;;;;;;;4.97;3.43;;;;;;;24.37;58.43;99586.45;;;;-63
2019/07/26 14:14:06;;;;;;;9.08;3.68;;;;;;;24.38;58.39;99587.97;;;;-62
2019/07/26 14:17:06;;;;;;;9.11;3.61;;;;;;;24.38;58.34;99585.28;;;;-62
2019/07/26 14:20:06;;;;;;;10.62;3.61;;;;;;;24.39;58.35;99580.23;;;;-62
2019/07/26 14:23:06;;;;;;;6.82;3.45;;;;;;;24.38;58.33;99576.77;;;;-59
2019/07/26 14:26:06;;;;;;;6.37;3.69;;;;;;;24.38;58.51;99575.75;;;;-59
2019/07/26 14:29:06;;;;;;;5.24;3.80;;;;;;;24.39;58.38;99564.60;;;;-53
2019/07/26 14:32:06;;;;;;;5.57;3.51;;;;;;;24.39;58.34;99560.31;;;;-52
2019/07/26 14:35:06;;;;;;;7.90;3.84;;;;;;;24.40;58.30;99559.15;;;;-59
2019/07/26 14:38:06;;;;;;;4.59;3.50;;;;;;;24.39;58.26;99559.56;;;;-52
2019/07/26 14:41:06;;;;;;;6.21;3.95;;;;;;;24.40;58.34;99553.41;;;;-52
2019/07/26 14:44:06;;;;;;;7.17;4.11;;;;;;;24.40;58.19;99562.52;;;;-52
2019/07/26 14:47:06;;;;;;;5.69;3.51;;;;;;;24.40;58.38;99551.78;;;;-52
2019/07/26 14:50:06;;;;;;;6.40;3.67;;;;;;;24.40;58.33;99545.20;;;;-51
2019/07/26 14:53:07;;;;;;;7.23;3.61;;;;;;;24.40;58.28;99539.66;;;;-50
2019/07/26 14:56:06;;;;;;;5.05;3.94;;;;;;;24.40;58.19;99533.24;;;;-51
2019/07/26 14:59:06;;;;;;;5.64;3.53;;;;;;;24.42;58.24;99528.11;;;;-50
2019/07/26 15:02:06;;;;;;;4.98;3.48;;;;;;;24.41;58.23;99527.52;;;;-52
2019/07/26 15:05:06;;;;;;;4.65;3.73;;;;;;;24.42;58.12;99524.23;;;;-52
2019/07/26 15:08:06;;;;;;;5.15;3.61;;;;;;;24.41;58.19;99507.27;;;;-56
2019/07/26 15:11:06;;;;;;;4.54;3.49;;;;;;;24.42;58.13;99502.80;;;;-51
2019/07/26 15:14:06;;;;;;;10.77;4.11;;;;;;;24.43;58.73;99499.43;;;;-51
2019/07/26 15:17:06;;;;;;;10.29;4.37;;;;;;;24.45;58.39;99495.89;;;;-52
2019/07/26 15:20:06;;;;;;;6.93;3.80;;;;;;;24.45;58.41;99486.77;;;;-52
2019/07/26 15:23:07;;;;;;;6.88;3.95;;;;;;;24.46;58.42;99487.28;;;;-47
2019/07/26 15:26:06;;;;;;;6.98;3.59;;;;;;;24.46;58.30;99477.33;;;;-51
2019/07/26 15:29:06;;;;;;;5.83;3.92;;;;;;;24.45;58.13;99477.16;;;;-50
2019/07/26 15:32:06;;;;;;;6.97;3.78;;;;;;;24.41;58.15;99467.27;;;;-50
2019/07/26 15:35:06;;;;;;;6.09;4.09;;;;;;;24.39;58.34;99466.23;;;;-51
2019/07/26 15:38:06;;;;;;;7.23;4.11;;;;;;;24.39;58.35;99460.66;;;;-50
2019/07/26 15:41:06;;;;;;;5.81;4.14;;;;;;;24.41;58.36;99459.57;;;;-52
2019/07/26 15:44:06;;;;;;;8.15;3.83;;;;;;;24.41;58.35;99456.44;;;;-52
2019/07/26 15:47:06;;;;;;;6.27;4.07;;;;;;;24.41;58.20;99449.35;;;;-50
2019/07/26 15:50:06;;;;;;;8.69;4.17;;;;;;;24.42;58.20;99452.73;;;;-51
2019/07/26 15:53:07;;;;;;;6.47;3.91;;;;;;;24.41;58.24;99447.01;;;;-49
2019/07/26 15:56:06;;;;;;;9.38;3.97;;;;;;;24.40;58.26;99441.09;;;;-49
2019/07/26 15:59:06;;;;;;;8.22;3.77;;;;;;;24.41;58.30;99445.41;;;;-50
2019/07/26 16:02:06;;;;;;;8.64;3.98;;;;;;;24.41;58.28;99442.12;;;;-51
2019/07/26 16:05:06;;;;;;;7.34;4.08;;;;;;;24.40;58.22;99441.94;;;;-52
2019/07/26 16:08:06;;;;;;;6.07;3.89;;;;;;;24.41;58.18;99440.17;;;;-49
2019/07/26 16:11:06;;;;;;;6.36;3.98;;;;;;;24.40;58.37;99437.30;;;;-49
2019/07/26 16:14:06;;;;;;;8.01;3.88;;;;;;;24.41;58.33;99435.52;;;;-51
2019/07/26 16:17:06;;;;;;;5.27;3.91;;;;;;;24.40;58.28;99430.78;;;;-50
2019/07/26 16:20:06;;;;;;;5.63;3.94;;;;;;;24.40;58.23;99426.08;;;;-51
2019/07/26 16:23:06;;;;;;;6.59;3.64;;;;;;;24.41;58.29;99410.64;;;;-50
2019/07/26 16:26:06;;;;;;;4.91;3.72;;;;;;;24.41;58.25;99428.34;;;;-50
2019/07/26 16:29:06;;;;;;;5.03;3.89;;;;;;;24.40;58.18;99430.80;;;;-52
2019/07/26 16:32:06;;;;;;;4.45;3.90;;;;;;;24.39;58.23;99427.06;;;;-56
2019/07/26 16:35:06;;;;;;;6.28;3.77;;;;;;;24.40;58.27;99431.55;;;;-53
2019/07/26 16:38:06;;;;;;;4.07;3.67;;;;;;;24.39;58.28;99430.12;;;;-55
2019/07/26 16:41:06;;;;;;;6.18;3.87;;;;;;;24.39;58.33;99429.70;;;;-50
2019/07/26 16:44:06;;;;;;;6.77;3.95;;;;;;;24.39;58.36;99433.24;;;;-50
2019/07/26 16:47:06;;;;;;;6.03;3.81;;;;;;;24.38;58.33;99434.84;;;;-48
2019/07/26 16:50:06;;;;;;;9.65;3.92;;;;;;;24.42;58.33;99435.63;;;;-51